Time;durP1;ratioP1;P1;durP2;ratioP2;P2;SDS_P1;SDS_P2;PMS_P1;PMS_P2;Temp;Humidity;BMP_temperature;BMP_pressure;BME280_temperature;BME280_humidity;BME280_pressure;Samples;Min_cycle;Max_cycle;Signal;HPM_P1;HPM_P2
2023/10/27 00:00:07;;;;;;;8.60;2.92;;;9.80;99.90;;;;;;4993926;28;86762;-75
2023/10/27 00:02:38;;;;;;;19.05;4.00;;;9.90;99.90;;;;;;4994910;28;85965;-73
2023/10/27 00:05:06;;;;;;;20.88;3.58;;;9.90;99.90;;;;;;4995610;28;90715;-72
2023/10/27 00:07:31;;;;;;;22.95;4.63;;;9.90;99.90;;;;;;4995264;28;91104;-73
2023/10/27 00:09:57;;;;;;;27.17;4.82;;;10.00;99.90;;;;;;4994590;28;86394;-73
2023/10/27 00:12:22;;;;;;;16.27;3.10;;;10.00;99.90;;;;;;4995461;28;85765;-74
2023/10/27 00:14:48;;;;;;;9.05;3.28;;;10.00;99.90;;;;;;4994393;28;90282;-76
2023/10/27 00:17:14;;;;;;;16.75;2.70;;;10.00;99.90;;;;;;4996335;28;89049;-72
2023/10/27 00:19:40;;;;;;;13.52;3.25;;;10.10;99.90;;;;;;4995086;28;85896;-73
2023/10/27 00:22:06;;;;;;;14.65;3.75;;;10.10;99.90;;;;;;4996671;28;86324;-75
2023/10/27 00:24:45;;;;;;;14.02;3.13;;;10.10;99.90;;;;;;4996552;28;87439;-72
2023/10/27 00:27:11;;;;;;;15.65;3.92;;;10.10;99.90;;;;;;4994125;28;90151;-72
2023/10/27 00:29:37;;;;;;;14.38;3.30;;;10.20;99.90;;;;;;4996547;28;85916;-72
2023/10/27 00:32:03;;;;;;;16.90;3.03;;;10.20;99.90;;;;;;4995885;28;85940;-73
2023/10/27 00:34:29;;;;;;;13.32;2.90;;;10.20;99.90;;;;;;4996794;28;87540;-72
2023/10/27 00:36:54;;;;;;;15.52;3.35;;;10.30;99.90;;;;;;4993433;28;89234;-73
2023/10/27 00:39:20;;;;;;;19.08;5.10;;;10.30;99.90;;;;;;4996384;28;86157;-73
2023/10/27 00:41:46;;;;;;;16.88;3.67;;;10.30;99.90;;;;;;4993843;28;86026;-74
2023/10/27 00:44:11;;;;;;;19.40;3.92;;;10.40;99.90;;;;;;4997773;28;86729;-72
2023/10/27 00:46:39;;;;;;;14.48;3.28;;;10.40;99.90;;;;;;4997134;28;89786;-72
2023/10/27 00:49:05;;;;;;;21.90;3.45;;;10.40;99.90;;;;;;4997761;28;86942;-72
2023/10/27 00:51:50;;;;;;;30.65;4.75;;;10.40;99.90;;;;;;5000370;28;85903;-72
2023/10/27 00:54:18;;;;;;;21.20;3.72;;;10.50;99.90;;;;;;5000298;28;88527;-72
2023/10/27 00:56:45;;;;;;;22.20;4.50;;;10.50;99.90;;;;;;4999498;28;89750;-71
2023/10/27 00:59:12;;;;;;;21.83;4.13;;;10.50;99.90;;;;;;5002489;28;85627;-71
2023/10/27 01:01:39;;;;;;;25.73;3.95;;;10.50;99.90;;;;;;5001024;28;85779;-72
2023/10/27 01:04:13;;;;;;;24.90;4.13;;;10.60;99.90;;;;;;5000917;28;90347;-72
2023/10/27 01:06:39;;;;;;;26.92;4.38;;;10.60;99.90;;;;;;5000203;28;89487;-75
2023/10/27 01:09:17;;;;;;;30.90;4.68;;;10.70;99.90;;;;;;4999020;28;85751;-73
2023/10/27 01:11:44;;;;;;;15.50;3.55;;;10.70;99.90;;;;;;4999836;28;85837;-73
2023/10/27 01:14:30;;;;;;;17.52;3.90;;;10.70;99.90;;;;;;4999858;28;90495;-74
2023/10/27 01:16:56;;;;;;;21.25;3.83;;;10.80;99.90;;;;;;4999734;28;88559;-72
2023/10/27 01:19:22;;;;;;;18.77;4.07;;;10.80;99.90;;;;;;4998396;28;86259;-74
2023/10/27 01:21:48;;;;;;;22.70;2.90;;;10.80;99.90;;;;;;4999279;28;85978;-73
2023/10/27 01:24:17;;;;;;;25.27;4.07;;;10.90;99.90;;;;;;4999430;28;86985;-73
2023/10/27 01:26:50;;;;;;;25.05;3.13;;;10.90;99.90;;;;;;4997611;28;89776;-73
2023/10/27 01:29:15;;;;;;;14.43;3.00;;;10.90;99.90;;;;;;5001592;28;85912;-73
2023/10/27 01:31:47;;;;;;;14.95;2.63;;;10.90;99.90;;;;;;5003135;28;85879;-73
2023/10/27 01:34:13;;;;;;;12.82;2.28;;;10.90;99.90;;;;;;5002200;28;90026;-73
2023/10/27 01:36:38;;;;;;;12.40;2.05;;;11.00;99.90;;;;;;5002832;28;85720;-73
2023/10/27 01:39:21;;;;;;;14.43;2.45;;;11.00;99.90;;;;;;5018537;28;87494;-75
2023/10/27 01:41:47;;;;;;;10.07;2.40;;;11.00;99.90;;;;;;5002352;28;85658;-72
2023/10/27 01:44:13;;;;;;;13.60;3.08;;;11.10;99.90;;;;;;5003714;28;85879;-73
2023/10/27 01:46:38;;;;;;;17.52;2.50;;;11.10;99.90;;;;;;5001767;28;86065;-73
2023/10/27 01:49:04;;;;;;;15.30;2.75;;;11.10;99.90;;;;;;5001852;28;86219;-74
2023/10/27 01:51:48;;;;;;;17.90;3.13;;;11.10;99.90;;;;;;5004193;28;85875;-73
2023/10/27 01:54:15;;;;;;;15.57;2.35;;;11.10;99.90;;;;;;5002827;28;86911;-73
2023/10/27 01:56:41;;;;;;;14.07;2.25;;;11.10;99.90;;;;;;5000453;28;88752;-73
2023/10/27 01:59:12;;;;;;;15.68;2.25;;;11.10;99.90;;;;;;5001901;28;86947;-74
2023/10/27 02:01:37;;;;;;;9.68;2.15;;;11.10;99.90;;;;;;4999340;28;85753;-75
2023/10/27 02:04:03;;;;;;;10.95;2.38;;;11.20;99.90;;;;;;5001790;28;85989;-73
2023/10/27 02:06:35;;;;;;;15.10;2.25;;;11.10;99.90;;;;;;4999624;28;90551;-73
2023/10/27 02:09:01;;;;;;;13.15;2.00;;;11.20;99.90;;;;;;5001777;28;86524;-73
2023/10/27 02:11:27;;;;;;;21.00;3.38;;;11.20;99.90;;;;;;5001125;28;85745;-73
2023/10/27 02:13:58;;;;;;;9.68;2.75;;;11.20;99.90;;;;;;4999945;28;86673;-73
2023/10/27 02:16:24;;;;;;;9.68;1.90;;;11.20;99.90;;;;;;5001035;28;87230;-74
2023/10/27 02:19:28;;;;;;;9.02;2.60;;;11.20;99.90;;;;;;4994507;28;85964;-73
2023/10/27 02:21:53;;;;;;;15.07;2.15;;;11.20;99.90;;;;;;5009853;28;85996;-73
2023/10/27 02:24:38;;;;;;;13.52;2.88;;;11.30;99.90;;;;;;5003321;28;87135;-73
2023/10/27 02:27:04;;;;;;;15.70;2.42;;;11.30;99.90;;;;;;5002347;28;87756;-72
2023/10/27 02:29:29;;;;;;;19.98;2.58;;;11.30;99.90;;;;;;5004001;28;85708;-74
2023/10/27 02:31:55;;;;;;;14.63;2.50;;;11.20;99.90;;;;;;5002515;28;85792;-74
2023/10/27 02:37:31;;;;;;;12.05;2.42;;;11.20;99.90;;;;;;5002256;28;87803;-73
2023/10/27 02:39:57;;;;;;;17.05;2.05;;;11.20;99.90;;;;;;5003428;28;85871;-73
2023/10/27 02:42:37;;;;;;;11.98;2.00;;;11.20;99.90;;;;;;5001607;28;85892;-75
2023/10/27 02:45:03;;;;;;;15.77;2.63;;;11.20;99.90;;;;;;5002122;28;89901;-74
2023/10/27 02:47:44;;;;;;;20.27;3.00;;;11.20;99.90;;;;;;5002818;28;90371;-74
2023/10/27 02:50:09;;;;;;;24.10;2.70;;;11.20;99.90;;;;;;5004595;28;85779;-74
2023/10/27 02:52:39;;;;;;;11.50;2.50;;;11.20;99.90;;;;;;5018582;28;85928;-74
2023/10/27 02:55:05;;;;;;;16.35;2.58;;;11.20;99.90;;;;;;5002473;28;90709;-75
2023/10/27 02:58:13;;;;;;;10.25;2.15;;;11.20;99.90;;;;;;5002196;28;91076;-73
2023/10/27 03:00:45;;;;;;;12.57;2.10;;;11.20;99.90;;;;;;5006045;28;86113;-75
2023/10/27 03:03:24;;;;;;;10.20;2.27;;;11.20;99.90;;;;;;5001316;28;85925;-74
2023/10/27 03:05:50;;;;;;;14.77;2.53;;;11.20;99.90;;;;;;5002296;28;85960;-74
2023/10/27 03:08:16;;;;;;;12.57;2.58;;;11.20;99.90;;;;;;5003592;28;86151;-74
2023/10/27 03:10:54;;;;;;;11.07;2.22;;;11.20;99.90;;;;;;5002853;28;85749;-74
2023/10/27 03:13:19;;;;;;;9.75;2.55;;;11.20;99.90;;;;;;5000376;28;86585;-74
2023/10/27 03:15:46;;;;;;;15.35;2.38;;;11.30;99.90;;;;;;5002331;28;86909;-74
2023/10/27 03:18:12;;;;;;;13.80;2.38;;;11.20;99.90;;;;;;4999603;28;89379;-75
2023/10/27 03:20:38;;;;;;;9.55;2.47;;;11.30;99.90;;;;;;5002568;28;86352;-74
2023/10/27 03:23:04;;;;;;;7.90;2.03;;;11.20;99.90;;;;;;5000370;28;86004;-73
2023/10/27 03:25:29;;;;;;;11.35;2.25;;;11.20;99.90;;;;;;4997826;28;90635;-73
2023/10/27 03:27:56;;;;;;;6.68;1.92;;;11.30;99.90;;;;;;4998534;28;89704;-74
2023/10/27 03:30:22;;;;;;;6.95;1.80;;;11.20;99.90;;;;;;5000117;28;85857;-75
2023/10/27 03:32:48;;;;;;;11.35;2.30;;;11.30;99.90;;;;;;4998560;28;85901;-73
2023/10/27 03:35:15;;;;;;;13.60;2.38;;;11.30;99.90;;;;;;4998644;28;90065;-74
2023/10/27 03:37:45;;;;;;;10.25;2.40;;;11.30;99.90;;;;;;4998220;28;89799;-73
2023/10/27 03:40:14;;;;;;;7.07;1.92;;;11.30;99.90;;;;;;5012792;28;86394;-76
2023/10/27 03:42:41;;;;;;;11.55;1.83;;;11.30;99.90;;;;;;4997187;28;85949;-74
2023/10/27 03:45:07;;;;;;;7.60;1.92;;;11.30;99.90;;;;;;4999748;28;87468;-74
2023/10/27 03:47:33;;;;;;;11.48;2.10;;;11.30;99.90;;;;;;5015440;28;88336;-73
2023/10/27 03:49:58;;;;;;;10.77;1.77;;;11.30;99.90;;;;;;4996286;28;85888;-73
2023/10/27 03:52:24;;;;;;;8.95;1.67;;;11.30;99.90;;;;;;4998641;28;85879;-73
2023/10/27 03:54:50;;;;;;;7.40;1.67;;;11.30;99.90;;;;;;4997466;28;86556;-74
2023/10/27 03:57:15;;;;;;;7.03;2.20;;;11.30;99.90;;;;;;4986289;28;87923;-73
2023/10/27 03:59:48;;;;;;;13.13;1.83;;;11.30;99.90;;;;;;4996478;28;86272;-76
2023/10/27 04:02:15;;;;;;;9.30;1.77;;;11.30;99.90;;;;;;4995268;28;86526;-72
2023/10/27 04:04:42;;;;;;;12.60;1.85;;;11.30;99.90;;;;;;4996327;28;89352;-73
2023/10/27 04:07:23;;;;;;;10.70;2.08;;;11.30;99.90;;;;;;4997228;28;89025;-74
2023/10/27 04:09:48;;;;;;;10.15;2.20;;;11.30;99.90;;;;;;4996327;28;86004;-74
2023/10/27 04:12:14;;;;;;;7.68;1.80;;;11.30;99.90;;;;;;4996136;28;86351;-73
2023/10/27 04:14:40;;;;;;;12.73;1.95;;;11.30;99.90;;;;;;4993552;28;91496;-77
2023/10/27 04:17:05;;;;;;;10.70;2.42;;;11.20;99.90;;;;;;4992417;28;89412;-74
2023/10/27 04:19:31;;;;;;;12.85;2.10;;;11.20;99.90;;;;;;4997279;28;86282;-73
2023/10/27 04:21:56;;;;;;;10.88;2.20;;;11.20;99.90;;;;;;5013314;28;86013;-73
2023/10/27 04:24:24;;;;;;;8.05;2.30;;;11.20;99.90;;;;;;4998006;28;86618;-73
2023/10/27 04:26:53;;;;;;;13.35;2.20;;;11.20;99.90;;;;;;4998074;28;86600;-74
2023/10/27 04:29:19;;;;;;;7.30;2.03;;;11.20;99.90;;;;;;4997665;28;86288;-73
2023/10/27 04:31:45;;;;;;;6.00;1.83;;;11.20;99.90;;;;;;4995414;28;86021;-74
2023/10/27 04:34:11;;;;;;;7.78;2.50;;;11.20;99.90;;;;;;4996089;28;89884;-74
2023/10/27 04:36:37;;;;;;;7.53;2.10;;;11.20;99.90;;;;;;4995532;28;86939;-73
2023/10/27 04:39:06;;;;;;;8.90;2.80;;;11.20;99.90;;;;;;4993288;28;86018;-73
2023/10/27 04:41:33;;;;;;;6.07;2.67;;;11.20;99.90;;;;;;4993347;28;86608;-74
2023/10/27 04:43:59;;;;;;;10.70;3.35;;;11.20;99.90;;;;;;4992469;28;86883;-73
2023/10/27 04:46:24;;;;;;;9.18;3.05;;;11.20;99.90;;;;;;4991686;28;86599;-75
2023/10/27 04:48:50;;;;;;;6.85;2.83;;;11.20;99.90;;;;;;4990011;28;86384;-74
2023/10/27 04:51:16;;;;;;;9.15;3.28;;;11.20;99.90;;;;;;5002564;28;86028;-78
2023/10/27 04:53:42;;;;;;;7.85;2.95;;;11.20;99.90;;;;;;4985720;28;90537;-74
2023/10/27 04:56:07;;;;;;;5.78;2.70;;;11.20;99.90;;;;;;4986414;28;89087;-75
2023/10/27 04:58:33;;;;;;;5.70;2.85;;;11.20;99.90;;;;;;4987967;28;86253;-74
2023/10/27 05:00:59;;;;;;;6.57;3.25;;;11.20;99.90;;;;;;4984622;28;87102;-74
2023/10/27 05:03:25;;;;;;;7.20;3.00;;;11.20;99.90;;;;;;5003691;28;90434;-77
2023/10/27 05:05:51;;;;;;;8.60;3.15;;;11.20;99.90;;;;;;4987958;28;89713;-75
2023/10/27 05:08:16;;;;;;;8.57;3.95;;;11.20;99.90;;;;;;4988474;28;86452;-75
2023/10/27 05:10:42;;;;;;;7.78;3.67;;;11.20;99.90;;;;;;4990006;28;86220;-73
2023/10/27 05:13:08;;;;;;;7.72;3.55;;;11.20;99.90;;;;;;4988925;28;87159;-72
2023/10/27 05:15:34;;;;;;;10.70;4.50;;;11.20;99.90;;;;;;4987131;28;86927;-74
2023/10/27 05:18:04;;;;;;;10.57;5.32;;;11.20;99.90;;;;;;4986416;28;86850;-76
2023/10/27 05:20:35;;;;;;;11.57;5.13;;;11.20;99.90;;;;;;4987715;28;86247;-75
2023/10/27 05:23:04;;;;;;;9.20;4.05;;;11.20;99.90;;;;;;4987701;28;94422;-73
2023/10/27 05:25:30;;;;;;;8.73;4.55;;;11.20;99.90;;;;;;4986920;28;87608;-75
2023/10/27 05:27:55;;;;;;;13.65;4.68;;;11.20;99.90;;;;;;4988319;28;86711;-74
2023/10/27 05:30:21;;;;;;;13.77;4.88;;;11.20;99.90;;;;;;4987632;28;86555;-73
2023/10/27 05:32:47;;;;;;;10.95;5.20;;;11.20;99.90;;;;;;4987763;28;87332;-75
2023/10/27 05:35:15;;;;;;;18.33;6.60;;;11.20;99.90;;;;;;4988508;28;87201;-77
2023/10/27 05:37:41;;;;;;;13.95;7.22;;;11.20;99.90;;;;;;4986817;28;86868;-76
2023/10/27 05:40:07;;;;;;;18.05;7.25;;;11.20;99.90;;;;;;4987874;28;87283;-78
2023/10/27 05:42:32;;;;;;;17.73;9.07;;;11.20;99.90;;;;;;4986012;28;90597;-77
2023/10/27 05:44:58;;;;;;;20.38;7.95;;;11.20;99.90;;;;;;4985254;28;86580;-74
2023/10/27 05:47:24;;;;;;;21.65;8.65;;;11.20;99.90;;;;;;4988172;28;86865;-76
2023/10/27 05:49:50;;;;;;;15.82;7.57;;;11.20;99.90;;;;;;4984875;28;87669;-75
2023/10/27 05:52:16;;;;;;;19.42;7.07;;;11.20;99.90;;;;;;4986776;28;87347;-74
2023/10/27 05:54:43;;;;;;;14.38;6.55;;;11.30;99.90;;;;;;5001410;28;90167;-74
2023/10/27 05:57:09;;;;;;;10.40;5.47;;;11.30;99.90;;;;;;4984838;28;87204;-74
2023/10/27 05:59:36;;;;;;;10.18;5.22;;;11.30;99.90;;;;;;4985982;28;86447;-76
2023/10/27 06:02:04;;;;;;;9.40;4.63;;;11.20;99.90;;;;;;4986993;28;87921;-77
2023/10/27 06:04:30;;;;;;;12.77;4.13;;;11.20;99.90;;;;;;4983505;28;89744;-76
2023/10/27 06:06:56;;;;;;;7.65;3.67;;;11.30;99.90;;;;;;4985344;28;87058;-74
2023/10/27 06:09:21;;;;;;;5.68;3.00;;;11.30;99.90;;;;;;4983162;28;86390;-76
2023/10/27 06:11:47;;;;;;;6.97;3.13;;;11.20;99.90;;;;;;4984830;28;86988;-74
2023/10/27 06:14:12;;;;;;;6.68;2.55;;;11.20;99.90;;;;;;4985199;28;86765;-75
2023/10/27 06:16:38;;;;;;;5.95;2.25;;;11.20;99.90;;;;;;4982568;28;86286;-75
2023/10/27 06:19:04;;;;;;;3.72;1.85;;;11.20;99.90;;;;;;4982442;28;86636;-74
2023/10/27 06:21:30;;;;;;;8.10;1.98;;;11.20;99.90;;;;;;4972424;28;91087;-74
2023/10/27 06:23:55;;;;;;;5.22;1.77;;;11.20;99.90;;;;;;4989847;28;89310;-74
2023/10/27 06:26:22;;;;;;;3.10;1.67;;;11.20;99.90;;;;;;4983930;28;86490;-74
2023/10/27 06:28:48;;;;;;;4.22;1.85;;;11.20;99.90;;;;;;4984269;28;86444;-74
2023/10/27 06:31:14;;;;;;;5.05;1.55;;;11.20;99.90;;;;;;4983488;28;86938;-75
2023/10/27 06:33:39;;;;;;;7.25;1.90;;;11.10;99.90;;;;;;4983700;28;86414;-75
2023/10/27 06:36:05;;;;;;;4.95;1.77;;;11.10;99.90;;;;;;4983032;28;86477;-75
2023/10/27 06:38:31;;;;;;;4.63;1.42;;;11.10;99.90;;;;;;4981520;28;86438;-75
2023/10/27 06:40:56;;;;;;;5.47;1.60;;;11.10;99.90;;;;;;4999497;28;90753;-75
2023/10/27 06:43:25;;;;;;;3.97;1.65;;;11.10;99.90;;;;;;4984264;28;86058;-75
2023/10/27 06:45:50;;;;;;;5.25;1.85;;;11.10;99.90;;;;;;4985309;28;87499;-75
2023/10/27 06:48:19;;;;;;;6.63;2.15;;;11.10;99.90;;;;;;4977239;28;86910;-75
2023/10/27 06:50:44;;;;;;;2.88;1.30;;;11.10;99.90;;;;;;4983033;28;89900;-74
2023/10/27 06:53:19;;;;;;;3.83;1.73;;;11.10;99.90;;;;;;4985402;28;87703;-74
2023/10/27 06:55:45;;;;;;;7.10;2.20;;;11.10;99.90;;;;;;4982947;28;86382;-74
2023/10/27 06:58:11;;;;;;;7.50;2.35;;;11.10;99.90;;;;;;4981973;28;86471;-74
2023/10/27 07:00:36;;;;;;;4.35;2.40;;;11.10;99.90;;;;;;4984130;28;87437;-74
2023/10/27 07:03:02;;;;;;;5.10;2.35;;;11.10;99.90;;;;;;4984944;28;86547;-75
2023/10/27 07:05:28;;;;;;;10.25;2.60;;;11.10;99.90;;;;;;4983958;28;86512;-75
2023/10/27 07:07:54;;;;;;;4.55;2.65;;;11.10;99.90;;;;;;4982477;28;86343;-74
2023/10/27 07:10:20;;;;;;;9.55;3.50;;;11.10;99.90;;;;;;4981883;28;90776;-74
2023/10/27 07:12:46;;;;;;;11.07;3.33;;;11.10;99.90;;;;;;4983024;28;87679;-74
2023/10/27 07:15:13;;;;;;;7.40;3.53;;;11.10;99.90;;;;;;4983846;28;86537;-75
2023/10/27 07:17:40;;;;;;;13.10;3.63;;;11.10;99.90;;;;;;4981606;28;86979;-74
2023/10/27 07:20:08;;;;;;;10.45;4.28;;;11.10;99.90;;;;;;4981917;28;90379;-75
2023/10/27 07:22:35;;;;;;;10.90;4.40;;;11.20;99.90;;;;;;4981406;28;89643;-73
2023/10/27 07:25:01;;;;;;;10.60;4.28;;;11.20;99.90;;;;;;4981927;28;87157;-73
2023/10/27 07:27:27;;;;;;;18.60;5.10;;;11.20;99.90;;;;;;4982231;28;86586;-74
2023/10/27 07:29:53;;;;;;;12.70;5.15;;;11.20;99.90;;;;;;4977617;27;87467;-74
2023/10/27 07:32:26;;;;;;;14.50;5.85;;;11.30;99.90;;;;;;4983087;28;86738;-73
2023/10/27 07:34:52;;;;;;;13.40;5.70;;;11.30;99.90;;;;;;4981784;28;87031;-75
2023/10/27 07:37:20;;;;;;;14.35;6.22;;;11.30;99.90;;;;;;4981827;28;86397;-73
2023/10/27 07:39:46;;;;;;;13.77;6.88;;;11.40;99.90;;;;;;4983943;28;90100;-73
2023/10/27 07:42:13;;;;;;;17.70;7.32;;;11.40;99.90;;;;;;4982754;28;86658;-73
2023/10/27 07:44:39;;;;;;;18.48;7.47;;;11.50;99.90;;;;;;4980891;28;86571;-72
2023/10/27 07:47:15;;;;;;;17.55;7.60;;;11.50;99.90;;;;;;4983515;28;86726;-72
2023/10/27 07:49:43;;;;;;;19.83;8.35;;;11.50;99.90;;;;;;4981862;28;87003;-72
2023/10/27 07:52:11;;;;;;;18.08;8.13;;;11.60;99.90;;;;;;4981417;28;88898;-72
2023/10/27 07:54:37;;;;;;;21.23;8.15;;;11.60;99.90;;;;;;4983402;28;86454;-73
2023/10/27 07:57:04;;;;;;;17.08;7.82;;;11.70;99.90;;;;;;4981888;28;86830;-73
2023/10/27 07:59:30;;;;;;;18.13;8.25;;;11.70;99.90;;;;;;4984310;28;88003;-73
2023/10/27 08:01:58;;;;;;;21.17;8.90;;;11.70;99.90;;;;;;4971451;28;94288;-72
2023/10/27 08:04:24;;;;;;;17.98;9.02;;;11.80;99.90;;;;;;4982320;28;86069;-72
2023/10/27 08:06:50;;;;;;;18.70;8.80;;;11.80;99.90;;;;;;4982564;28;86422;-73
2023/10/27 08:09:15;;;;;;;20.02;9.15;;;11.90;99.90;;;;;;4982256;28;87613;-72
2023/10/27 08:11:41;;;;;;;18.40;9.32;;;11.90;99.90;;;;;;4980708;28;88350;-74
2023/10/27 08:14:07;;;;;;;16.85;8.63;;;11.90;99.90;;;;;;4981554;28;86557;-74
2023/10/27 08:16:32;;;;;;;20.98;8.77;;;12.00;99.90;;;;;;4979771;28;86786;-74
2023/10/27 08:19:01;;;;;;;19.15;8.73;;;12.10;99.90;;;;;;4979691;28;90697;-72
2023/10/27 08:21:27;;;;;;;19.13;8.90;;;12.10;99.90;;;;;;4979749;28;90327;-73
2023/10/27 08:23:52;;;;;;;16.02;8.07;;;12.10;99.90;;;;;;4980196;28;86483;-73
2023/10/27 08:26:20;;;;;;;19.13;8.63;;;12.20;99.90;;;;;;4981063;28;86287;-73
2023/10/27 08:28:48;;;;;;;21.88;9.50;;;12.20;99.90;;;;;;4983110;28;86496;-73
2023/10/27 08:31:19;;;;;;;28.05;9.40;;;12.30;99.90;;;;;;4979992;28;90030;-72
2023/10/27 08:33:44;;;;;;;32.97;10.60;;;12.30;99.90;;;;;;4997721;28;86497;-73
2023/10/27 08:36:19;;;;;;;32.38;9.43;;;12.40;99.90;;;;;;4980494;28;86478;-74
2023/10/27 08:38:45;;;;;;;24.60;9.32;;;12.40;99.90;;;;;;4982912;28;91164;-74
2023/10/27 08:41:11;;;;;;;33.60;11.10;;;12.50;99.90;;;;;;4986283;28;86692;-73
2023/10/27 08:43:39;;;;;;;20.55;8.45;;;12.50;99.90;;;;;;4982392;28;87723;-74
2023/10/27 08:46:10;;;;;;;24.38;8.18;;;12.60;99.90;;;;;;4983446;28;86648;-73
2023/10/27 08:48:35;;;;;;;20.67;8.27;;;12.60;99.90;;;;;;4983222;28;90906;-74
2023/10/27 08:51:05;;;;;;;20.38;8.07;;;12.60;99.90;;;;;;4983777;28;86930;-74
2023/10/27 08:53:31;;;;;;;20.25;8.07;;;12.60;99.90;;;;;;4960476;28;86754;-75
2023/10/27 08:55:58;;;;;;;15.13;7.30;;;12.70;99.90;;;;;;4985250;28;86428;-74
2023/10/27 08:58:24;;;;;;;21.00;7.03;;;12.70;99.90;;;;;;4985719;28;86892;-74
2023/10/27 09:00:50;;;;;;;15.38;7.28;;;12.70;99.90;;;;;;4983221;28;88706;-75
2023/10/27 09:03:16;;;;;;;15.63;7.40;;;12.80;99.90;;;;;;4998778;28;86622;-74
2023/10/27 09:05:42;;;;;;;18.75;7.63;;;12.80;99.90;;;;;;4984055;28;87046;-74
2023/10/27 09:08:09;;;;;;;17.52;6.78;;;12.90;99.90;;;;;;4983845;28;90307;-73
2023/10/27 09:10:36;;;;;;;16.67;7.28;;;12.90;99.90;;;;;;5000337;28;90206;-74
2023/10/27 09:13:03;;;;;;;16.73;6.50;;;13.00;99.90;;;;;;4981423;28;86522;-73
2023/10/27 09:15:47;;;;;;;16.52;6.18;;;13.00;99.90;;;;;;4985625;28;86333;-75
2023/10/27 09:18:37;;;;;;;13.43;5.68;;;13.00;99.90;;;;;;4982570;28;89206;-74
2023/10/27 09:21:03;;;;;;;24.48;5.68;;;13.10;99.90;;;;;;4972047;28;86748;-74
2023/10/27 09:23:43;;;;;;;15.43;6.93;;;13.10;99.90;;;;;;4983884;28;86522;-74
2023/10/27 09:26:09;;;;;;;16.95;5.75;;;13.10;99.90;;;;;;4982920;28;88588;-75
2023/10/27 09:28:35;;;;;;;17.90;5.43;;;13.20;99.90;;;;;;4984101;28;86930;-75
2023/10/27 09:31:00;;;;;;;16.92;5.03;;;13.20;99.90;;;;;;4983340;28;90013;-73
2023/10/27 09:33:26;;;;;;;19.73;5.15;;;13.20;99.90;;;;;;4982962;28;87207;-74
2023/10/27 09:35:53;;;;;;;16.30;4.93;;;13.30;99.90;;;;;;4983163;28;86396;-73
2023/10/27 09:38:22;;;;;;;17.50;5.75;;;13.40;99.90;;;;;;4982982;28;90549;-75
2023/10/27 09:40:48;;;;;;;14.27;4.65;;;13.50;99.90;;;;;;4982512;28;89621;-76
2023/10/27 09:43:29;;;;;;;14.75;4.70;;;13.60;99.90;;;;;;4982283;28;86899;-73
2023/10/27 09:46:00;;;;;;;16.02;4.30;;;13.60;99.90;;;;;;4983077;28;87152;-75
2023/10/27 09:48:28;;;;;;;18.75;6.00;;;13.60;99.90;;;;;;4984770;28;86973;-73
2023/10/27 09:51:01;;;;;;;18.48;4.32;;;13.70;99.90;;;;;;4982876;28;89408;-74
2023/10/27 09:53:28;;;;;;;;;;;13.70;99.90;;;;;;4983427;28;87156;-74
2023/10/27 09:55:59;;;;;;;14.57;4.10;;;13.80;99.90;;;;;;4984352;28;86770;-75
2023/10/27 09:58:31;;;;;;;13.30;4.35;;;13.80;99.90;;;;;;4984716;28;86882;-74
2023/10/27 10:01:00;;;;;;;12.98;4.28;;;13.90;99.90;;;;;;4981793;28;89930;-73
2023/10/27 10:03:30;;;;;;;15.70;4.68;;;13.90;99.90;;;;;;4983681;28;86443;-75
2023/10/27 10:06:23;;;;;;;14.25;4.63;;;13.90;99.90;;;;;;4982700;28;86921;-74
2023/10/27 10:09:11;;;;;;;22.27;4.85;;;13.80;99.90;;;;;;4972432;28;90787;-74
2023/10/27 10:11:57;;;;;;;20.95;4.60;;;13.80;99.90;;;;;;4983777;28;90107;-74
2023/10/27 10:14:40;;;;;;;21.08;5.03;;;13.80;99.90;;;;;;4984225;28;88151;-75
2023/10/27 10:17:06;;;;;;;15.30;4.28;;;13.70;99.90;;;;;;4999584;28;86956;-75
2023/10/27 10:19:55;;;;;;;17.63;4.80;;;13.70;99.90;;;;;;4982075;28;88789;-74
2023/10/27 10:22:39;;;;;;;15.05;4.45;;;13.60;99.90;;;;;;4983515;28;86959;-73
2023/10/27 10:25:14;;;;;;;17.35;4.05;;;13.60;99.90;;;;;;4986210;28;87156;-75
2023/10/27 10:28:16;;;;;;;17.88;3.08;;;13.60;99.90;;;;;;4987883;28;86104;-74
2023/10/27 10:30:46;;;;;;;15.10;3.67;;;13.50;99.90;;;;;;4998762;28;90427;-74
2023/10/27 10:33:19;;;;;;;6.80;2.10;;;13.50;99.90;;;;;;4982541;28;90151;-74
2023/10/27 10:35:46;;;;;;;14.27;2.73;;;13.40;99.90;;;;;;4983847;28;86368;-74
2023/10/27 10:38:24;;;;;;;15.90;3.22;;;13.40;99.90;;;;;;4986175;28;86398;-75
2023/10/27 10:41:02;;;;;;;11.63;2.92;;;13.40;99.90;;;;;;4982854;28;87197;-75
2023/10/27 10:43:30;;;;;;;11.90;2.50;;;13.40;99.90;;;;;;4983160;28;88823;-74
2023/10/27 10:45:58;;;;;;;13.18;2.78;;;13.30;99.90;;;;;;4982282;28;87415;-74
2023/10/27 10:48:26;;;;;;;11.45;2.70;;;13.40;99.90;;;;;;4983563;28;86900;-73
2023/10/27 10:50:55;;;;;;;11.25;2.35;;;13.30;99.90;;;;;;4983915;28;86728;-76
2023/10/27 10:53:24;;;;;;;10.38;2.67;;;13.30;99.90;;;;;;4982948;28;89796;-76
2023/10/27 10:55:50;;;;;;;12.25;2.45;;;13.30;99.90;;;;;;4981906;28;86529;-74
2023/10/27 10:58:30;;;;;;;9.50;2.75;;;13.30;99.90;;;;;;4981702;28;87025;-73
2023/10/27 11:00:57;;;;;;;7.93;2.38;;;13.20;99.90;;;;;;4981035;28;90991;-73
2023/10/27 11:03:31;;;;;;;13.63;2.40;;;13.20;99.90;;;;;;4985108;28;87094;-73
2023/10/27 11:06:02;;;;;;;16.85;3.30;;;13.20;99.90;;;;;;4983736;28;86615;-74
2023/10/27 11:08:30;;;;;;;10.75;2.13;;;13.20;99.90;;;;;;4983277;28;86868;-73
2023/10/27 11:11:03;;;;;;;12.00;2.45;;;13.20;99.90;;;;;;4983924;28;91949;-74
2023/10/27 11:13:29;;;;;;;7.82;2.50;;;13.10;99.90;;;;;;4989352;28;87079;-75
2023/10/27 11:15:55;;;;;;;11.45;2.10;;;13.10;99.90;;;;;;4982925;28;86370;-74
2023/10/27 11:18:26;;;;;;;9.95;2.10;;;13.10;99.90;;;;;;4983665;28;86958;-73
2023/10/27 11:20:52;;;;;;;10.50;2.30;;;13.10;99.90;;;;;;4984066;28;87652;-74
2023/10/27 11:23:17;;;;;;;11.82;2.45;;;13.00;99.90;;;;;;4985409;28;86944;-74
2023/10/27 11:25:44;;;;;;;15.60;2.08;;;13.10;99.90;;;;;;4983632;28;86767;-74
2023/10/27 11:28:26;;;;;;;13.27;3.58;;;13.10;99.90;;;;;;4985132;28;86731;-74
2023/10/27 11:31:10;;;;;;;18.15;2.42;;;13.00;99.90;;;;;;4998638;28;90547;-74
2023/10/27 11:34:05;;;;;;;8.48;2.03;;;13.10;99.90;;;;;;4983158;28;86845;-76
2023/10/27 11:36:32;;;;;;;9.52;1.70;;;13.10;99.90;;;;;;4984639;28;86417;-73
2023/10/27 11:39:17;;;;;;;13.45;2.30;;;13.10;99.90;;;;;;4981196;28;86962;-73
2023/10/27 11:41:52;;;;;;;13.60;3.35;;;13.10;99.90;;;;;;4981476;28;90016;-73
2023/10/27 11:44:19;;;;;;;14.63;2.20;;;13.10;99.90;;;;;;4982099;28;89921;-76
2023/10/27 11:46:49;;;;;;;8.95;1.88;;;13.10;99.90;;;;;;4982162;28;86484;-74
2023/10/27 11:49:15;;;;;;;10.63;1.85;;;13.00;99.90;;;;;;4981424;28;86672;-75
2023/10/27 11:51:49;;;;;;;16.35;2.33;;;13.00;99.90;;;;;;4983818;28;89260;-73
2023/10/27 11:54:15;;;;;;;;;;;12.90;99.90;;;;;;4982222;28;89346;-74
2023/10/27 11:56:42;;;;;;;7.72;2.03;;;12.90;99.90;;;;;;4985906;28;86263;-74
2023/10/27 11:59:09;;;;;;;11.13;1.95;;;12.80;99.90;;;;;;4984602;28;86170;-74
2023/10/27 12:01:39;;;;;;;9.85;2.08;;;12.80;99.90;;;;;;4981277;28;89293;-75
2023/10/27 12:04:13;;;;;;;7.60;2.22;;;12.80;99.90;;;;;;4982242;28;89762;-73
2023/10/27 12:06:40;;;;;;;12.25;2.17;;;12.70;99.90;;;;;;4983070;28;85929;-75
2023/10/27 12:09:06;;;;;;;9.82;2.63;;;12.70;99.90;;;;;;4982761;28;86831;-73
2023/10/27 12:11:32;;;;;;;15.82;2.58;;;12.70;99.90;;;;;;4998836;28;88966;-74
2023/10/27 12:14:01;;;;;;;12.88;2.28;;;12.70;99.90;;;;;;4980590;28;89877;-73
2023/10/27 12:16:29;;;;;;;10.27;1.95;;;12.70;99.90;;;;;;4982338;28;86421;-73
2023/10/27 12:18:57;;;;;;;9.35;2.22;;;12.80;99.90;;;;;;4997285;28;87609;-75
2023/10/27 12:21:26;;;;;;;8.32;1.98;;;12.90;99.90;;;;;;4965594;28;88208;-74
2023/10/27 12:23:52;;;;;;;11.23;1.95;;;13.00;99.90;;;;;;4981338;28;87924;-73
2023/10/27 12:26:19;;;;;;;12.55;2.33;;;13.10;99.90;;;;;;4982772;28;87270;-76
2023/10/27 12:28:45;;;;;;;13.82;2.13;;;13.20;99.90;;;;;;4981949;28;87004;-74
2023/10/27 12:31:13;;;;;;;12.40;2.28;;;13.20;99.90;;;;;;4983030;28;89626;-77
2023/10/27 12:33:46;;;;;;;9.43;2.20;;;13.30;99.90;;;;;;4982437;28;88413;-74
2023/10/27 12:36:12;;;;;;;12.70;2.00;;;13.50;99.90;;;;;;4982697;28;86452;-73
2023/10/27 12:38:39;;;;;;;11.98;2.10;;;13.60;99.90;;;;;;4984307;28;86348;-75
2023/10/27 12:41:05;;;;;;;13.93;2.53;;;13.70;99.90;;;;;;4982823;28;87187;-74
2023/10/27 12:43:30;;;;;;;13.57;2.13;;;13.90;99.90;;;;;;4982035;28;89380;-74
2023/10/27 12:45:56;;;;;;;9.95;1.88;;;14.00;99.90;;;;;;4980605;28;87115;-75
2023/10/27 12:48:22;;;;;;;8.13;1.42;;;14.10;99.90;;;;;;4980329;28;87276;-73
2023/10/27 12:50:48;;;;;;;10.32;1.95;;;14.20;99.90;;;;;;4977001;28;87253;-74